메인 페이지
METAR-TAF:

METAR-TAF

공항 :

위치토, 캔자스, 미국

위도: 37-37N, 경도: 097-16W, 고도: 418m

현재 날씨관측

예보는 1 시간 26분 전, 17:56시(UTC)에 발표되었습니다.
10kt
온도 17°C
습도 36%
기압 1014 hPa
시정: 16.1km
맑음

METAR: KIAB 191756Z AUTO 10010KT 10SM CLR 17/02 A2993 RMK AO2 SLP135 T01680016 10168 20033 58016

시각: 13:22 (19:22 UTC)

예보

예보는 1 시간 22분 전, 18:00시(UTC)에 발표되었습니다.
예보 대상 시간: 19일 18시부터 20일 24시까지 (UTC)
남동9kt
시정 10km 이상
고도 22000ft 상공 구름 조금
전환 중
20일 13시부터 20일 14시까지 (UTC)
남남동9kt
시정 10km 이상
고도 300ft 상공 구름 많음
전환 중
20일 17시부터 20일 18시까지 (UTC)
15kt
시정: 8000m
고도 200ft 상공 흐림
약한소나기

TAF: KIAB 191800Z 1918/2024 14009KT 9999 FEW220 QNH2981INS BECMG 2013/2014 16009KT 9999 BKN003 QNH2977INS BECMG 2017/2018 18015KT 8000 -SHRA OVC002 520053 QNH2975INS TX20/1921Z TN06/2011Z

4,000개 이상의 공항 관측 자료 및 예보 (METAR 및 TAF 보고).

지도상에서 검색 가능한 기상관측소가 노란 점과 빨간 점으로 표시되어 있습니다.

기상관측소 명을 보려면 표시 위로 마우스를 이동하세요.

날씨 관측과 예보를 보려면 클릭하세요.

지도 변경 : 확대하려면 엑스 표시가 있는 녹색 버튼, 축소하려면 빼기 표시가 있는 녹색 버튼, 다음 페이지의 지도를 보려면 녹색 화살표를 클릭하세요.


METAR-TAF: